Time;durP1;ratioP1;P1;durP2;ratioP2;P2;SDS_P1;SDS_P2;PMS_P1;PMS_P2;Temp;Humidity;BMP_temperature;BMP_pressure;BME280_temperature;BME280_humidity;BME280_pressure;Samples;Min_cycle;Max_cycle;Signal;HPM_P1;HPM_P2
2022/05/29 00:00:24;;;;;;;3.10;1.77;;;10.20;99.90;;;;;;7377412;19;20443;-73
2022/05/29 00:02:50;;;;;;;2.37;1.60;;;10.20;99.90;;;;;;7374318;19;20463;-73
2022/05/29 00:05:15;;;;;;;2.10;1.67;;;10.20;99.90;;;;;;7376709;19;20696;-73
2022/05/29 00:07:42;;;;;;;2.67;1.60;;;10.20;99.90;;;;;;7374562;19;20344;-73
2022/05/29 00:10:09;;;;;;;2.47;1.60;;;10.20;99.90;;;;;;7377952;19;20450;-74
2022/05/29 00:12:34;;;;;;;3.42;1.88;;;10.10;99.90;;;;;;7373424;19;20378;-73
2022/05/29 00:15:00;;;;;;;3.65;1.83;;;10.00;99.90;;;;;;7373093;19;20883;-73
2022/05/29 00:17:25;;;;;;;3.03;1.90;;;10.00;99.90;;;;;;7371206;19;20406;-72
2022/05/29 00:19:51;;;;;;;4.97;2.10;;;10.00;99.90;;;;;;7372295;19;20717;-72
2022/05/29 00:22:18;;;;;;;3.20;1.65;;;10.00;99.90;;;;;;7375159;19;20687;-75
2022/05/29 00:24:45;;;;;;;2.85;1.85;;;10.00;99.90;;;;;;7372448;19;20361;-73
2022/05/29 00:27:11;;;;;;;3.08;1.90;;;9.80;99.90;;;;;;7373946;19;21216;-73
2022/05/29 00:29:38;;;;;;;4.80;1.90;;;9.90;99.90;;;;;;7375499;19;20371;-72
2022/05/29 00:32:04;;;;;;;8.02;1.95;;;9.90;99.90;;;;;;7379191;19;20360;-73
2022/05/29 00:34:30;;;;;;;5.05;2.20;;;9.90;99.90;;;;;;7376821;19;20403;-73
2022/05/29 00:36:58;;;;;;;3.20;1.88;;;9.80;99.90;;;;;;7376308;19;20373;-73
2022/05/29 00:39:24;;;;;;;3.75;1.70;;;9.80;99.90;;;;;;7375311;19;20375;-73
2022/05/29 00:41:50;;;;;;;2.38;1.50;;;9.80;99.90;;;;;;7375395;19;20361;-73
2022/05/29 00:44:26;;;;;;;2.23;1.60;;;9.80;99.90;;;;;;7381756;19;20367;-74
2022/05/29 00:47:02;;;;;;;2.97;1.73;;;9.80;99.90;;;;;;7379867;19;20448;-73
2022/05/29 00:49:29;;;;;;;2.80;1.70;;;9.80;99.90;;;;;;7379291;19;20862;-73
2022/05/29 00:52:13;;;;;;;2.85;1.63;;;9.70;99.90;;;;;;7380160;19;20444;-73
2022/05/29 00:54:44;;;;;;;1.93;1.47;;;9.70;99.90;;;;;;7378980;19;20373;-72
2022/05/29 00:57:14;;;;;;;4.73;1.77;;;9.70;99.90;;;;;;7377980;19;20924;-74
2022/05/29 00:59:40;;;;;;;3.53;1.90;;;9.60;99.90;;;;;;7380073;19;20364;-74
2022/05/29 01:02:05;;;;;;;2.08;1.65;;;9.60;99.90;;;;;;7376162;19;21000;-73
2022/05/29 01:04:35;;;;;;;2.80;1.90;;;9.50;99.90;;;;;;7377633;19;20432;-73
2022/05/29 01:07:08;;;;;;;2.58;1.50;;;9.50;99.90;;;;;;7377749;19;20385;-73
2022/05/29 01:09:34;;;;;;;3.42;2.00;;;9.50;99.90;;;;;;7380853;19;20356;-72
2022/05/29 01:12:13;;;;;;;3.00;1.80;;;9.50;99.90;;;;;;7378096;19;20399;-73
2022/05/29 01:14:54;;;;;;;4.63;1.63;;;9.50;99.90;;;;;;7379660;19;20906;-72
2022/05/29 01:17:42;;;;;;;4.07;1.90;;;9.40;99.90;;;;;;7380046;19;20398;-73
2022/05/29 01:20:28;;;;;;;3.13;1.65;;;9.40;99.90;;;;;;7380831;19;20998;-73
2022/05/29 01:23:09;;;;;;;3.22;1.60;;;9.30;99.90;;;;;;7377115;19;20922;-72
2022/05/29 01:26:17;;;;;;;3.67;1.63;;;9.20;99.90;;;;;;7380376;19;20380;-72
2022/05/29 01:29:02;;;;;;;1.70;1.40;;;9.20;99.90;;;;;;7378931;19;20383;-73
2022/05/29 01:31:49;;;;;;;1.63;1.48;;;9.20;99.90;;;;;;7375027;19;20356;-74
2022/05/29 01:34:40;;;;;;;4.10;1.70;;;9.10;99.90;;;;;;7375942;19;20378;-73
2022/05/29 01:37:35;;;;;;;1.53;1.43;;;9.10;99.90;;;;;;7379601;19;20353;-73
2022/05/29 01:40:07;;;;;;;3.42;1.80;;;9.00;99.90;;;;;;7379326;19;20349;-73
2022/05/29 01:42:37;;;;;;;2.78;1.90;;;9.00;99.90;;;;;;7376994;19;20371;-73
2022/05/29 01:45:26;;;;;;;2.83;2.00;;;8.90;99.90;;;;;;7378986;19;20396;-72
2022/05/29 01:48:14;;;;;;;2.97;1.70;;;8.90;99.90;;;;;;7378172;19;20352;-73
2022/05/29 01:50:52;;;;;;;1.90;1.42;;;8.90;99.90;;;;;;7378689;19;20793;-74
2022/05/29 01:53:26;;;;;;;6.57;1.95;;;8.80;99.90;;;;;;7375695;19;20364;-75
2022/05/29 01:55:55;;;;;;;2.65;1.60;;;8.70;99.90;;;;;;7377734;19;20909;-78
2022/05/29 01:58:28;;;;;;;3.03;1.88;;;8.70;99.90;;;;;;7375555;19;20353;-75
2022/05/29 02:00:54;;;;;;;2.92;1.90;;;8.70;99.90;;;;;;7375526;19;20355;-77
2022/05/29 02:03:22;;;;;;;2.67;1.80;;;8.60;99.90;;;;;;7377487;19;20895;-76
2022/05/29 02:05:53;;;;;;;4.43;1.75;;;8.60;99.90;;;;;;7371352;19;20389;-79
2022/05/29 02:08:30;;;;;;;3.40;1.75;;;8.50;99.90;;;;;;7376841;19;20385;-76
2022/05/29 02:10:57;;;;;;;3.10;1.70;;;8.50;99.90;;;;;;7376175;19;20369;-75
2022/05/29 02:13:45;;;;;;;2.10;1.50;;;8.50;99.90;;;;;;7378358;19;20381;-75
2022/05/29 02:16:12;;;;;;;1.75;1.58;;;8.40;99.90;;;;;;7378263;19;20345;-76
2022/05/29 02:18:47;;;;;;;2.00;1.50;;;8.40;99.90;;;;;;7375801;19;20352;-79
2022/05/29 02:21:32;;;;;;;1.98;1.40;;;8.30;99.90;;;;;;7380629;19;20389;-79
2022/05/29 02:23:59;;;;;;;2.15;1.60;;;8.40;99.90;;;;;;7380752;19;20369;-75
2022/05/29 02:26:26;;;;;;;2.15;1.65;;;8.30;99.90;;;;;;7378848;19;20392;-75
2022/05/29 02:28:54;;;;;;;2.95;2.10;;;8.30;99.90;;;;;;7373573;19;20360;-75
2022/05/29 02:31:27;;;;;;;4.07;2.00;;;8.20;99.90;;;;;;7379744;19;20382;-76
2022/05/29 02:33:56;;;;;;;2.20;1.40;;;8.20;99.90;;;;;;7380655;19;20353;-77
2022/05/29 02:36:36;;;;;;;2.17;1.70;;;8.20;99.90;;;;;;7381003;19;20370;-76
2022/05/29 02:39:39;;;;;;;2.45;1.70;;;8.20;99.90;;;;;;7370896;19;20380;-77
2022/05/29 02:42:35;;;;;;;4.37;1.90;;;8.20;99.90;;;;;;7377181;19;20374;-75
2022/05/29 02:45:08;;;;;;;4.43;1.80;;;8.20;99.90;;;;;;7379406;19;20431;-76
2022/05/29 02:47:57;;;;;;;4.55;1.95;;;8.20;99.90;;;;;;7375570;19;20374;-75
2022/05/29 02:50:30;;;;;;;4.95;1.77;;;8.10;99.90;;;;;;7380082;19;20352;-78
2022/05/29 02:52:59;;;;;;;2.70;1.50;;;8.00;99.90;;;;;;7378949;19;20373;-78
2022/05/29 02:55:25;;;;;;;1.67;1.58;;;8.00;99.90;;;;;;7379291;19;20574;-77
2022/05/29 02:57:56;;;;;;;2.67;1.73;;;8.00;99.90;;;;;;7376699;19;20978;-76
2022/05/29 03:00:22;;;;;;;3.55;1.70;;;7.90;99.90;;;;;;7376236;19;20875;-77
2022/05/29 03:03:03;;;;;;;1.58;1.45;;;7.90;99.90;;;;;;7378566;19;20344;-78
2022/05/29 03:05:38;;;;;;;1.98;1.63;;;8.00;99.90;;;;;;7385965;19;20380;-76
2022/05/29 03:08:29;;;;;;;2.63;1.73;;;8.00;99.90;;;;;;7381048;19;20360;-77
2022/05/29 03:11:06;;;;;;;2.38;1.60;;;8.00;99.90;;;;;;7385143;19;20376;-75
2022/05/29 03:13:50;;;;;;;2.67;1.80;;;8.00;99.90;;;;;;7385681;19;20849;-81
2022/05/29 03:16:33;;;;;;;6.15;1.67;;;8.00;99.90;;;;;;7387911;19;20360;-79
2022/05/29 03:19:31;;;;;;;1.88;1.60;;;8.00;99.90;;;;;;7382405;19;20355;-76
2022/05/29 03:22:51;;;;;;;2.58;1.85;;;8.00;99.90;;;;;;7381229;19;20360;-77
2022/05/29 03:25:21;;;;;;;4.32;2.03;;;8.00;99.90;;;;;;7384984;19;20446;-78
2022/05/29 03:27:51;;;;;;;3.22;1.75;;;8.00;99.90;;;;;;7385027;19;20364;-77
2022/05/29 03:30:37;;;;;;;3.80;1.90;;;8.00;99.90;;;;;;7387814;19;20390;-76
2022/05/29 03:33:06;;;;;;;3.92;1.83;;;7.90;99.90;;;;;;7383461;19;20376;-78
2022/05/29 03:35:45;;;;;;;2.25;1.90;;;7.90;99.90;;;;;;7386459;19;20355;-77
2022/05/29 03:38:11;;;;;;;3.17;1.63;;;7.90;99.90;;;;;;7383034;19;20353;-78
2022/05/29 03:40:36;;;;;;;2.70;1.93;;;7.90;99.90;;;;;;7390390;19;20764;-77
2022/05/29 03:43:02;;;;;;;2.63;1.80;;;7.80;99.90;;;;;;7389411;19;20372;-80
2022/05/29 03:45:28;;;;;;;4.00;2.20;;;7.80;99.90;;;;;;7385549;19;20412;-76
2022/05/29 03:47:55;;;;;;;2.42;1.90;;;7.80;99.90;;;;;;7381938;19;20420;-75
2022/05/29 03:50:21;;;;;;;4.10;2.10;;;7.80;99.90;;;;;;7385669;19;20348;-75
2022/05/29 03:52:47;;;;;;;7.67;2.10;;;7.70;99.90;;;;;;7361116;19;20352;-75
2022/05/29 03:55:13;;;;;;;2.97;2.10;;;7.70;99.90;;;;;;7377525;19;20371;-77
2022/05/29 03:57:39;;;;;;;2.22;1.70;;;7.70;99.90;;;;;;7377996;19;20353;-79
2022/05/29 04:00:06;;;;;;;2.45;1.75;;;7.70;99.90;;;;;;7382210;19;20361;-74
2022/05/29 04:02:39;;;;;;;4.50;1.73;;;7.70;99.90;;;;;;7381576;19;20348;-74
2022/05/29 04:05:05;;;;;;;3.53;1.80;;;7.70;99.90;;;;;;7383053;19;20420;-75
2022/05/29 04:12:59;;;;;;;1.92;1.60;;;7.70;99.90;;;;;;7380735;19;20377;-80
2022/05/29 04:15:24;;;;;;;4.03;1.90;;;7.80;99.90;;;;;;7378248;19;20368;-77
2022/05/29 04:17:50;;;;;;;1.70;1.60;;;7.70;99.90;;;;;;7375657;19;20378;-76
2022/05/29 04:20:16;;;;;;;3.33;1.80;;;7.70;99.90;;;;;;7382154;19;20360;-77
2022/05/29 04:22:41;;;;;;;2.30;1.85;;;7.70;99.90;;;;;;7379059;19;20388;-74
2022/05/29 04:25:08;;;;;;;2.90;1.93;;;7.90;99.90;;;;;;7381570;19;20359;-79
2022/05/29 04:27:33;;;;;;;5.32;1.98;;;8.00;99.90;;;;;;7382598;19;20728;-74
2022/05/29 04:29:59;;;;;;;3.15;2.10;;;8.10;99.90;;;;;;7383247;19;20384;-75
2022/05/29 04:35:09;;;;;;;3.17;1.77;;;8.40;99.90;;;;;;7380260;19;20352;-77
2022/05/29 04:37:34;;;;;;;4.07;1.88;;;8.50;99.90;;;;;;7377084;19;20347;-74
2022/05/29 04:40:00;;;;;;;2.87;1.90;;;8.60;99.90;;;;;;7380441;19;20377;-78
2022/05/29 04:42:25;;;;;;;3.05;1.88;;;8.80;99.90;;;;;;7378424;19;20399;-76
2022/05/29 04:44:51;;;;;;;3.67;2.07;;;8.90;99.90;;;;;;7379800;19;20372;-75
2022/05/29 04:47:17;;;;;;;3.08;2.08;;;8.90;99.90;;;;;;7378341;19;20368;-77
2022/05/29 04:49:42;;;;;;;2.50;1.70;;;8.80;99.90;;;;;;7381559;19;20372;-83
2022/05/29 04:52:09;;;;;;;4.30;2.00;;;8.90;99.90;;;;;;7378193;19;20367;-76
2022/05/29 04:54:38;;;;;;;2.47;1.73;;;8.90;99.90;;;;;;7376688;19;20367;-78
2022/05/29 04:57:07;;;;;;;2.08;1.58;;;9.00;99.90;;;;;;7379106;19;20372;-78
2022/05/29 04:59:34;;;;;;;2.88;1.80;;;9.10;99.90;;;;;;7381732;19;20352;-75
2022/05/29 05:02:00;;;;;;;5.13;1.90;;;9.20;99.90;;;;;;7374015;19;21185;-77
2022/05/29 05:04:25;;;;;;;3.60;2.00;;;9.30;99.90;;;;;;7378857;19;20377;-77
2022/05/29 05:06:55;;;;;;;4.10;2.17;;;9.30;99.90;;;;;;7378568;19;20994;-74
2022/05/29 05:09:21;;;;;;;3.00;1.90;;;9.40;99.90;;;;;;7376337;19;20352;-76
2022/05/29 05:11:46;;;;;;;2.47;2.00;;;9.40;99.90;;;;;;7371454;19;20737;-78
2022/05/29 05:14:12;;;;;;;3.20;2.05;;;9.50;99.90;;;;;;7376088;19;20708;-80
2022/05/29 05:16:38;;;;;;;4.40;1.70;;;9.70;99.90;;;;;;7377502;19;20356;-74
2022/05/29 05:19:03;;;;;;;3.33;2.10;;;9.70;99.90;;;;;;7374713;19;20364;-76
2022/05/29 05:21:29;;;;;;;4.60;1.73;;;9.80;99.90;;;;;;7375762;19;20383;-77
2022/05/29 05:23:54;;;;;;;3.63;2.03;;;9.70;99.90;;;;;;7377469;19;20368;-76
2022/05/29 05:26:20;;;;;;;4.05;1.90;;;9.70;99.90;;;;;;7377717;19;20388;-77
2022/05/29 05:28:45;;;;;;;3.10;1.90;;;9.70;99.90;;;;;;7377079;19;20348;-80
2022/05/29 05:31:11;;;;;;;2.13;1.85;;;9.90;99.90;;;;;;7376739;19;20353;-82
2022/05/29 05:33:37;;;;;;;2.60;1.67;;;9.90;99.90;;;;;;7377042;19;20947;-75
2022/05/29 05:36:03;;;;;;;3.33;1.80;;;10.20;99.90;;;;;;7376983;19;20364;-78
2022/05/29 05:38:30;;;;;;;2.25;1.67;;;10.40;99.90;;;;;;7377508;19;20428;-78
2022/05/29 05:40:56;;;;;;;3.92;2.08;;;10.50;99.90;;;;;;7378773;19;20380;-79
2022/05/29 05:43:22;;;;;;;2.67;1.88;;;10.70;99.90;;;;;;7379715;19;20368;-77
2022/05/29 05:45:48;;;;;;;3.70;1.90;;;10.70;99.90;;;;;;7379924;19;20365;-77
2022/05/29 05:48:13;;;;;;;2.13;1.92;;;11.00;99.90;;;;;;7372525;19;20491;-78
2022/05/29 05:50:39;;;;;;;2.73;1.80;;;11.10;99.90;;;;;;7375214;19;20369;-82
2022/05/29 05:53:05;;;;;;;3.55;1.88;;;11.20;99.90;;;;;;7375126;19;21182;-76
2022/05/29 05:55:30;;;;;;;5.87;2.40;;;11.10;99.90;;;;;;7379110;19;20364;-77
2022/05/29 05:57:56;;;;;;;3.25;1.83;;;11.10;99.90;;;;;;7373512;19;20369;-79
2022/05/29 06:00:23;;;;;;;2.53;1.70;;;11.30;99.90;;;;;;7377260;19;20368;-80
2022/05/29 06:02:48;;;;;;;2.70;1.83;;;11.40;99.90;;;;;;7376776;19;20393;-79
2022/05/29 06:05:14;;;;;;;5.10;1.70;;;11.60;99.90;;;;;;7377059;19;20764;-80
2022/05/29 06:07:40;;;;;;;3.38;1.80;;;11.60;99.90;;;;;;7372395;19;20371;-79
2022/05/29 06:10:06;;;;;;;2.57;1.83;;;11.30;99.90;;;;;;7375650;19;20874;-77
2022/05/29 06:12:31;;;;;;;3.13;1.90;;;11.30;99.90;;;;;;7377499;19;20344;-77
2022/05/29 06:14:58;;;;;;;3.08;2.20;;;11.40;99.90;;;;;;7377818;19;20878;-77
2022/05/29 06:17:23;;;;;;;3.10;1.90;;;11.40;99.90;;;;;;7373464;19;20874;-75
2022/05/29 06:19:49;;;;;;;3.47;1.80;;;11.60;99.90;;;;;;7375809;19;20366;-77
2022/05/29 06:22:14;;;;;;;3.05;1.73;;;11.70;99.90;;;;;;7377310;19;20353;-80
2022/05/29 06:24:40;;;;;;;2.67;2.13;;;11.90;99.90;;;;;;7379034;19;21207;-75
2022/05/29 06:27:06;;;;;;;2.05;1.70;;;12.10;99.90;;;;;;7375082;19;20363;-79
2022/05/29 06:29:32;;;;;;;3.67;1.83;;;12.50;99.90;;;;;;7375376;19;20368;-77
2022/05/29 06:32:03;;;;;;;2.65;1.70;;;12.50;99.90;;;;;;7375328;19;20365;-75
2022/05/29 06:34:29;;;;;;;3.17;1.70;;;12.80;99.90;;;;;;7377070;19;20914;-75
2022/05/29 06:36:55;;;;;;;5.53;1.90;;;13.10;99.90;;;;;;7376299;19;20380;-78
2022/05/29 06:39:22;;;;;;;3.00;1.92;;;13.00;99.90;;;;;;7368327;19;21253;-77
2022/05/29 06:41:48;;;;;;;2.08;1.42;;;12.80;99.90;;;;;;7377281;19;20356;-76
2022/05/29 06:44:22;;;;;;;3.50;2.10;;;13.20;99.90;;;;;;7377502;19;20360;-79
2022/05/29 06:46:47;;;;;;;4.40;1.92;;;13.20;99.90;;;;;;7377773;19;20347;-75
2022/05/29 06:49:13;;;;;;;2.10;1.67;;;12.70;99.90;;;;;;7372180;19;21218;-76
2022/05/29 06:51:39;;;;;;;2.78;1.92;;;12.70;99.90;;;;;;7377265;19;20367;-78
2022/05/29 06:54:05;;;;;;;3.80;1.50;;;12.80;99.90;;;;;;7377110;19;20894;-83
2022/05/29 06:56:31;;;;;;;1.90;1.70;;;13.20;99.90;;;;;;7375551;19;20380;-83
2022/05/29 06:58:56;;;;;;;3.33;1.90;;;13.50;99.90;;;;;;7370769;19;20997;-78
2022/05/29 07:06:59;;;;;;;3.33;1.85;;;13.80;99.90;;;;;;7376448;19;20360;-80
2022/05/29 07:09:26;;;;;;;3.75;1.85;;;14.00;99.90;;;;;;7370459;19;20405;-76
2022/05/29 07:11:55;;;;;;;2.65;1.75;;;14.00;99.90;;;;;;7372839;19;20348;-76
2022/05/29 07:14:21;;;;;;;3.95;2.13;;;14.20;99.90;;;;;;7375098;19;20380;-80
2022/05/29 07:16:46;;;;;;;3.90;2.13;;;14.30;99.90;;;;;;7372969;19;20372;-79
2022/05/29 07:19:18;;;;;;;2.60;1.60;;;13.90;99.90;;;;;;7373878;19;20373;-83
2022/05/29 07:21:43;;;;;;;2.47;1.80;;;13.90;99.90;;;;;;7377240;19;20385;-77
2022/05/29 07:24:12;;;;;;;2.80;2.00;;;14.30;99.90;;;;;;7376764;19;20826;-78
2022/05/29 07:26:37;;;;;;;4.78;2.30;;;14.60;99.90;;;;;;7373517;19;20766;-77
2022/05/29 07:29:03;;;;;;;2.43;1.60;;;14.80;99.90;;;;;;7369782;19;20344;-77
2022/05/29 07:31:29;;;;;;;2.47;1.70;;;14.40;99.90;;;;;;7381768;19;20372;-76
2022/05/29 07:33:55;;;;;;;2.47;1.70;;;14.40;99.90;;;;;;7382073;19;20353;-76
2022/05/29 07:36:22;;;;;;;2.63;1.80;;;13.90;99.90;;;;;;7379283;19;20449;-75
2022/05/29 07:38:47;;;;;;;2.67;1.60;;;13.90;99.90;;;;;;7374683;19;20376;-78
2022/05/29 07:43:57;;;;;;;3.38;1.60;;;14.60;99.90;;;;;;7379097;19;20364;-77
2022/05/29 07:46:23;;;;;;;3.57;1.90;;;14.80;99.90;;;;;;7382335;19;20878;-79
2022/05/29 07:48:49;;;;;;;2.90;1.67;;;14.50;99.90;;;;;;7373028;19;20391;-81
2022/05/29 07:51:15;;;;;;;3.28;1.90;;;14.90;99.90;;;;;;7377621;19;20360;-77
2022/05/29 07:53:40;;;;;;;3.40;1.63;;;14.90;99.90;;;;;;7382349;19;20376;-81
2022/05/29 07:56:06;;;;;;;2.50;1.60;;;15.00;99.90;;;;;;7382508;19;20344;-78
2022/05/29 07:58:33;;;;;;;2.10;1.57;;;15.20;99.90;;;;;;7382991;19;20357;-78
2022/05/29 08:00:59;;;;;;;3.93;2.03;;;15.40;99.90;;;;;;7383591;19;20360;-77
2022/05/29 08:03:25;;;;;;;2.85;1.90;;;15.30;99.90;;;;;;7386770;19;20340;-76
2022/05/29 08:05:51;;;;;;;2.03;1.65;;;15.40;99.90;;;;;;7383289;19;20359;-75
2022/05/29 08:08:16;;;;;;;3.65;1.50;;;15.50;99.90;;;;;;7374966;19;20353;-75
2022/05/29 08:10:42;;;;;;;1.63;1.40;;;15.40;99.90;;;;;;7378840;19;20403;-77
2022/05/29 08:13:08;;;;;;;1.85;1.42;;;15.40;99.90;;;;;;7374422;19;20373;-76
2022/05/29 08:15:35;;;;;;;3.93;1.57;;;15.70;99.90;;;;;;7377064;19;20364;-77
2022/05/29 08:18:01;;;;;;;2.15;1.67;;;16.20;99.90;;;;;;7368472;19;20353;-76
2022/05/29 08:20:27;;;;;;;2.03;1.60;;;16.50;99.90;;;;;;7377106;19;20379;-77
2022/05/29 08:22:52;;;;;;;2.55;1.55;;;16.60;99.90;;;;;;7376007;19;20341;-78
2022/05/29 08:30:51;;;;;;;2.87;1.70;;;16.50;99.90;;;;;;7374981;19;20353;-77
2022/05/29 08:33:28;;;;;;;1.80;1.50;;;16.80;99.90;;;;;;7374985;19;20356;-78
2022/05/29 08:36:01;;;;;;;1.30;1.13;;;16.70;99.90;;;;;;7374614;19;21161;-77
2022/05/29 08:38:27;;;;;;;2.03;1.52;;;16.80;99.90;;;;;;7373302;19;21190;-77
2022/05/29 08:41:54;;;;;;;2.42;1.60;;;16.40;99.90;;;;;;7370130;19;20368;-76
2022/05/29 08:44:24;;;;;;;1.90;1.53;;;16.40;99.90;;;;;;7369626;19;20368;-75
2022/05/29 08:46:52;;;;;;;1.58;1.48;;;16.40;99.90;;;;;;7368515;19;20364;-75
2022/05/29 08:49:25;;;;;;;2.67;1.60;;;16.40;99.90;;;;;;7367220;19;20375;-76
2022/05/29 08:52:22;;;;;;;2.27;1.87;;;16.40;99.90;;;;;;7372456;19;20353;-76
2022/05/29 08:54:55;;;;;;;1.65;1.45;;;16.40;99.90;;;;;;7371036;19;20353;-76
2022/05/29 08:57:41;;;;;;;1.95;1.35;;;16.40;99.90;;;;;;7369068;19;20444;-76
2022/05/29 09:00:14;;;;;;;2.80;1.33;;;16.30;99.90;;;;;;7369548;19;20367;-76
2022/05/29 09:03:05;;;;;;;1.83;1.40;;;16.20;99.90;;;;;;7372106;19;20755;-75
2022/05/29 09:05:35;;;;;;;2.03;1.48;;;16.30;99.90;;;;;;7372896;19;20348;-76
2022/05/29 09:08:06;;;;;;;2.13;1.50;;;16.40;99.90;;;;;;7365131;19;21079;-76
2022/05/29 09:10:39;;;;;;;1.67;1.38;;;16.40;99.90;;;;;;7372320;19;20337;-75
2022/05/29 09:13:08;;;;;;;2.55;2.15;;;16.50;99.90;;;;;;7376332;19;20380;-76
2022/05/29 09:15:39;;;;;;;1.90;1.70;;;16.60;99.90;;;;;;7377896;19;20361;-76
2022/05/29 09:18:12;;;;;;;3.47;1.70;;;15.90;99.90;;;;;;7370796;19;20357;-76
2022/05/29 09:20:47;;;;;;;2.38;1.65;;;16.20;99.90;;;;;;7375473;19;20391;-76
2022/05/29 09:23:16;;;;;;;2.55;1.63;;;16.10;99.90;;;;;;7374945;19;21173;-76
2022/05/29 09:25:44;;;;;;;2.03;1.50;;;16.40;99.90;;;;;;7374374;19;20356;-76
2022/05/29 09:28:35;;;;;;;1.73;1.63;;;16.60;99.90;;;;;;7374713;19;20911;-77
2022/05/29 09:31:12;;;;;;;2.30;1.60;;;16.30;99.90;;;;;;7372096;19;20344;-77
2022/05/29 09:33:38;;;;;;;3.80;1.60;;;17.20;99.90;;;;;;7374120;19;20444;-76
2022/05/29 09:36:28;;;;;;;3.67;2.47;;;17.80;99.90;;;;;;7375510;19;20411;-77
2022/05/29 09:39:14;;;;;;;4.05;1.80;;;18.10;99.90;;;;;;7368365;19;20464;-77
2022/05/29 09:41:44;;;;;;;2.23;2.00;;;18.10;99.90;;;;;;7375226;19;20376;-76
2022/05/29 09:44:13;;;;;;;2.03;1.42;;;17.80;99.90;;;;;;7375205;19;21366;-76
2022/05/29 09:46:40;;;;;;;2.38;1.88;;;17.70;99.90;;;;;;7374453;19;20962;-77
2022/05/29 09:52:04;;;;;;;2.13;1.30;;;17.50;99.90;;;;;;7370215;19;20966;-78
2022/05/29 09:54:31;;;;;;;1.50;1.20;;;17.30;99.90;;;;;;7368504;19;20393;-78
2022/05/29 09:57:11;;;;;;;1.40;1.30;;;17.40;99.90;;;;;;7370168;19;21239;-79
2022/05/29 09:59:42;;;;;;;3.42;1.55;;;17.40;99.90;;;;;;7373452;19;20389;-79
2022/05/29 10:02:27;;;;;;;2.15;1.30;;;17.30;99.90;;;;;;7366646;19;20359;-79
2022/05/29 10:04:55;;;;;;;1.80;1.50;;;17.20;99.90;;;;;;7369155;19;20420;-77
2022/05/29 10:07:45;;;;;;;3.37;1.53;;;17.00;99.90;;;;;;7368770;19;20369;-78
2022/05/29 10:10:24;;;;;;;1.83;1.30;;;16.90;99.90;;;;;;7373685;19;20352;-79
2022/05/29 10:12:50;;;;;;;2.20;1.40;;;17.10;99.90;;;;;;7365375;19;20382;-80
2022/05/29 10:15:24;;;;;;;2.15;1.95;;;17.00;99.90;;;;;;7367491;19;20994;-79
2022/05/29 10:17:53;;;;;;;3.90;1.70;;;16.80;99.90;;;;;;7367633;19;20367;-77
2022/05/29 10:20:39;;;;;;;1.95;1.60;;;16.70;99.90;;;;;;7370220;19;20444;-77
2022/05/29 10:23:10;;;;;;;1.42;1.33;;;16.70;99.90;;;;;;7370863;19;20372;-76
2022/05/29 10:25:42;;;;;;;1.83;1.30;;;16.40;99.90;;;;;;7368949;19;20368;-77
2022/05/29 10:28:15;;;;;;;2.42;1.38;;;16.40;99.90;;;;;;7363894;19;20420;-76
2022/05/29 10:30:48;;;;;;;1.90;1.60;;;16.30;99.90;;;;;;7368668;19;20352;-77
2022/05/29 10:33:25;;;;;;;2.42;1.50;;;16.30;99.90;;;;;;7367440;19;20436;-77
2022/05/29 10:35:53;;;;;;;2.63;1.50;;;16.50;99.90;;;;;;7367622;19;20356;-78
2022/05/29 10:38:18;;;;;;;1.55;1.23;;;16.70;99.90;;;;;;7364089;19;20393;-77
2022/05/29 10:40:45;;;;;;;1.35;1.20;;;16.40;99.90;;;;;;7369106;19;20902;-77
2022/05/29 10:43:11;;;;;;;2.28;1.27;;;16.80;99.90;;;;;;7369813;19;20352;-77
2022/05/29 10:45:44;;;;;;;1.30;1.20;;;17.10;99.90;;;;;;7370110;19;20389;-78
2022/05/29 10:48:33;;;;;;;1.55;1.30;;;17.30;99.90;;;;;;7364482;19;20348;-78
2022/05/29 10:51:21;;;;;;;1.67;1.30;;;17.30;99.90;;;;;;7367735;19;20455;-79
2022/05/29 10:54:00;;;;;;;1.35;1.25;;;17.30;99.90;;;;;;7369401;19;20356;-78
2022/05/29 10:56:41;;;;;;;1.90;1.20;;;17.10;99.90;;;;;;7368646;19;20368;-79
2022/05/29 10:59:21;;;;;;;2.05;1.65;;;16.90;99.90;;;;;;7365837;19;20451;-78
2022/05/29 11:05:01;;;;;;;4.53;2.00;;;14.90;99.90;;;;;;7369824;19;21041;-76
2022/05/29 11:07:32;;;;;;;1.75;1.40;;;14.00;99.90;;;;;;7364435;19;21206;-76
2022/05/29 11:10:03;;;;;;;2.60;1.30;;;14.20;99.90;;;;;;7368251;19;20348;-76
2022/05/29 11:12:48;;;;;;;3.47;1.80;;;14.40;99.90;;;;;;7369768;19;20459;-77
2022/05/29 11:15:39;;;;;;;6.95;3.20;;;14.60;99.90;;;;;;7369034;19;20368;-77
2022/05/29 11:18:29;;;;;;;2.00;1.50;;;14.80;99.90;;;;;;7361743;19;20363;-75
2022/05/29 11:21:04;;;;;;;2.10;1.70;;;15.10;99.90;;;;;;7370107;19;20356;-75
2022/05/29 11:23:58;;;;;;;1.73;1.63;;;15.20;99.90;;;;;;7365713;19;20348;-77
2022/05/29 11:26:32;;;;;;;1.95;1.40;;;15.30;99.90;;;;;;7372311;19;21267;-77
2022/05/29 11:29:24;;;;;;;2.00;1.45;;;15.60;99.90;;;;;;7366570;19;20431;-76
2022/05/29 11:32:19;;;;;;;1.70;1.60;;;15.60;99.90;;;;;;7371909;19;20356;-77
2022/05/29 11:34:59;;;;;;;1.80;1.38;;;15.70;99.90;;;;;;7372043;19;20372;-77
2022/05/29 11:37:49;;;;;;;1.63;1.50;;;15.80;99.90;;;;;;7374307;19;20365;-80
2022/05/29 11:40:23;;;;;;;2.88;1.60;;;15.70;99.90;;;;;;7379327;19;20356;-79
2022/05/29 11:42:55;;;;;;;1.30;1.20;;;15.70;99.90;;;;;;7375347;19;20376;-79
2022/05/29 11:51:08;;;;;;;1.23;1.13;;;15.80;99.90;;;;;;7371607;19;20364;-81
2022/05/29 11:54:01;;;;;;;0.80;0.80;;;15.70;99.90;;;;;;7372352;19;20364;-81
2022/05/29 11:56:50;;;;;;;0.73;0.73;;;15.80;99.90;;;;;;7375330;19;20369;-78
2022/05/29 11:59:42;;;;;;;0.70;0.70;;;15.40;99.90;;;;;;7367424;19;20506;-79
2022/05/29 12:02:45;;;;;;;1.30;1.20;;;15.60;99.90;;;;;;7373356;19;20352;-80
2022/05/29 12:05:29;;;;;;;1.20;1.10;;;15.70;99.90;;;;;;7374033;19;20348;-82
2022/05/29 12:08:16;;;;;;;1.30;1.20;;;15.80;99.90;;;;;;7372919;19;20376;-79
2022/05/29 12:10:57;;;;;;;1.23;1.13;;;16.00;99.90;;;;;;7376258;19;20354;-80
2022/05/29 12:13:26;;;;;;;1.02;1.02;;;15.80;99.90;;;;;;7375230;19;20364;-83
2022/05/29 12:15:57;;;;;;;1.10;1.10;;;16.00;99.90;;;;;;7375331;19;20368;-79
2022/05/29 12:18:23;;;;;;;1.30;1.20;;;16.50;99.90;;;;;;7370276;19;20376;-79
2022/05/29 12:20:56;;;;;;;1.20;1.13;;;16.60;99.90;;;;;;7373848;19;20716;-79
2022/05/29 12:23:27;;;;;;;1.25;1.00;;;16.70;99.90;;;;;;7374461;19;20379;-78
2022/05/29 12:26:20;;;;;;;1.30;1.20;;;16.90;99.90;;;;;;7376499;19;20461;-78
2022/05/29 12:28:55;;;;;;;1.20;1.10;;;16.80;99.90;;;;;;7369172;19;21242;-79
2022/05/29 12:31:49;;;;;;;2.35;1.20;;;16.90;99.90;;;;;;7374647;19;20353;-79
2022/05/29 12:34:17;;;;;;;1.75;1.15;;;17.00;99.90;;;;;;7368720;19;20360;-80
2022/05/29 12:36:58;;;;;;;1.73;1.40;;;17.30;99.90;;;;;;7376816;19;20400;-83
2022/05/29 12:39:29;;;;;;;1.17;1.08;;;17.60;99.90;;;;;;7365271;19;20357;-81
2022/05/29 12:42:10;;;;;;;1.25;1.10;;;17.90;99.90;;;;;;7377765;19;20360;-82
2022/05/29 12:44:55;;;;;;;0.90;0.90;;;18.10;99.90;;;;;;7379010;19;20352;-80
2022/05/29 12:51:26;;;;;;;1.20;1.10;;;18.80;99.90;;;;;;7382735;19;20368;-83
2022/05/29 12:54:16;;;;;;;2.38;2.17;;;19.40;99.90;;;;;;7389198;19;20392;-87
2022/05/29 12:56:54;;;;;;;1.85;1.00;;;20.20;99.90;;;;;;7384339;19;20894;-84
2022/05/29 13:06:39;;;;;;;1.97;1.00;;;21.30;99.90;;;;;;7393601;19;20352;-87
2022/05/29 13:09:42;;;;;;;1.23;1.13;;;21.60;99.90;;;;;;7392054;19;20360;-86
2022/05/29 13:16:28;;;;;;;0.98;0.82;;;21.60;99.90;;;;;;7414419;19;21012;-86
2022/05/29 13:19:21;;;;;;;1.42;1.20;;;22.00;99.70;;;;;;7398657;19;20356;-89
2022/05/29 13:22:07;;;;;;;1.33;1.23;;;21.80;98.90;;;;;;7400248;19;20355;-83
2022/05/29 13:24:41;;;;;;;1.15;1.10;;;21.60;98.60;;;;;;7404655;19;20403;-85
2022/05/29 13:31:15;;;;;;;1.17;1.10;;;20.60;95.60;;;;;;7404994;19;20382;-90
2022/05/29 13:33:59;;;;;;;2.90;1.38;;;21.40;98.20;;;;;;7401600;19;20344;-87
2022/05/29 13:42:32;;;;;;;0.90;0.90;;;22.70;99.90;;;;;;7391766;19;20401;-80
2022/05/29 13:47:42;;;;;;;0.87;0.87;;;23.70;94.20;;;;;;7377642;19;20445;-75
2022/05/29 13:50:11;;;;;;;0.70;0.70;;;24.00;91.60;;;;;;7377036;19;20353;-76
2022/05/29 13:52:52;;;;;;;0.98;0.98;;;23.90;92.20;;;;;;7376773;19;20398;-76
2022/05/29 13:55:43;;;;;;;0.82;0.82;;;23.10;91.00;;;;;;7376257;19;20350;-79
2022/05/29 14:04:06;;;;;;;0.80;0.80;;;22.00;86.20;;;;;;7373408;19;20360;-79
2022/05/29 14:06:40;;;;;;;1.70;0.93;;;22.30;87.60;;;;;;7374535;19;20707;-79
2022/05/29 14:09:12;;;;;;;4.00;1.65;;;20.70;83.00;;;;;;7376106;19;20443;-77
2022/05/29 14:11:53;;;;;;;1.00;0.82;;;20.60;89.90;;;;;;7375231;19;20339;-78
2022/05/29 14:14:34;;;;;;;0.87;0.87;;;20.60;88.40;;;;;;7374869;19;20365;-79
2022/05/29 14:17:27;;;;;;;1.48;0.82;;;20.80;91.10;;;;;;7374897;19;20360;-78
2022/05/29 14:20:14;;;;;;;0.90;0.77;;;22.90;91.70;;;;;;7375312;19;21285;-78
2022/05/29 14:22:59;;;;;;;0.73;0.73;;;22.60;84.50;;;;;;7373499;19;20367;-78
2022/05/29 14:26:02;;;;;;;1.00;0.90;;;22.80;88.30;;;;;;7373689;19;20377;-77
2022/05/29 14:28:52;;;;;;;0.83;0.83;;;22.50;87.10;;;;;;7375331;19;21264;-77